sensor_id;sensor_type;location;lat;lon;timestamp;P1;durP1;ratioP1;P2;durP2;ratioP2
1082;SDS011;530;51.448;7.238;2024-03-08T00:01:30;22.70;;;17.83;;
1082;SDS011;530;51.448;7.238;2024-03-08T00:03:56;18.47;;;15.37;;
1082;SDS011;530;51.448;7.238;2024-03-08T00:06:21;25.30;;;16.40;;
1082;SDS011;530;51.448;7.238;2024-03-08T00:08:47;23.60;;;17.60;;
1082;SDS011;530;51.448;7.238;2024-03-08T00:11:13;25.00;;;16.90;;
1082;SDS011;530;51.448;7.238;2024-03-08T00:13:38;19.77;;;16.60;;
1082;SDS011;530;51.448;7.238;2024-03-08T00:16:04;20.00;;;16.20;;
1082;SDS011;530;51.448;7.238;2024-03-08T00:18:30;22.00;;;17.53;;
1082;SDS011;530;51.448;7.238;2024-03-08T00:20:56;24.47;;;17.83;;
1082;SDS011;530;51.448;7.238;2024-03-08T00:23:21;22.83;;;17.33;;
1082;SDS011;530;51.448;7.238;2024-03-08T00:25:48;21.17;;;17.30;;
1082;SDS011;530;51.448;7.238;2024-03-08T00:28:14;24.50;;;16.83;;
1082;SDS011;530;51.448;7.238;2024-03-08T00:30:42;21.17;;;16.70;;
1082;SDS011;530;51.448;7.238;2024-03-08T00:33:07;24.20;;;17.00;;
1082;SDS011;530;51.448;7.238;2024-03-08T00:35:33;22.73;;;15.37;;
1082;SDS011;530;51.448;7.238;2024-03-08T00:37:59;21.70;;;17.17;;
1082;SDS011;530;51.448;7.238;2024-03-08T00:40:24;26.00;;;17.00;;
1082;SDS011;530;51.448;7.238;2024-03-08T00:42:50;21.27;;;15.63;;
1082;SDS011;530;51.448;7.238;2024-03-08T00:45:18;23.53;;;16.93;;
1082;SDS011;530;51.448;7.238;2024-03-08T00:47:44;21.43;;;16.90;;
1082;SDS011;530;51.448;7.238;2024-03-08T00:50:09;24.60;;;17.97;;
1082;SDS011;530;51.448;7.238;2024-03-08T00:52:36;22.63;;;17.40;;
1082;SDS011;530;51.448;7.238;2024-03-08T00:55:02;22.30;;;17.17;;
1082;SDS011;530;51.448;7.238;2024-03-08T00:57:28;22.40;;;17.10;;
1082;SDS011;530;51.448;7.238;2024-03-08T00:59:55;19.87;;;16.10;;
1082;SDS011;530;51.448;7.238;2024-03-08T01:02:21;20.60;;;17.17;;
1082;SDS011;530;51.448;7.238;2024-03-08T01:04:48;23.23;;;17.27;;
1082;SDS011;530;51.448;7.238;2024-03-08T01:07:14;22.53;;;18.00;;
1082;SDS011;530;51.448;7.238;2024-03-08T01:09:40;22.07;;;17.67;;
1082;SDS011;530;51.448;7.238;2024-03-08T01:12:06;24.87;;;18.70;;
1082;SDS011;530;51.448;7.238;2024-03-08T01:14:32;21.37;;;17.47;;
1082;SDS011;530;51.448;7.238;2024-03-08T01:16:58;20.67;;;17.00;;
1082;SDS011;530;51.448;7.238;2024-03-08T01:19:24;22.67;;;17.70;;
1082;SDS011;530;51.448;7.238;2024-03-08T01:21:50;21.33;;;16.43;;
1082;SDS011;530;51.448;7.238;2024-03-08T01:24:16;23.20;;;17.80;;
1082;SDS011;530;51.448;7.238;2024-03-08T01:26:42;22.80;;;16.90;;
1082;SDS011;530;51.448;7.238;2024-03-08T01:29:07;21.37;;;18.07;;
1082;SDS011;530;51.448;7.238;2024-03-08T01:31:33;21.87;;;17.20;;
1082;SDS011;530;51.448;7.238;2024-03-08T01:33:59;25.40;;;17.80;;
1082;SDS011;530;51.448;7.238;2024-03-08T01:36:25;22.40;;;16.83;;
1082;SDS011;530;51.448;7.238;2024-03-08T01:38:51;20.93;;;16.47;;
1082;SDS011;530;51.448;7.238;2024-03-08T01:41:17;24.50;;;16.93;;
1082;SDS011;530;51.448;7.238;2024-03-08T01:43:43;24.03;;;17.43;;
1082;SDS011;530;51.448;7.238;2024-03-08T01:46:10;24.03;;;18.10;;
1082;SDS011;530;51.448;7.238;2024-03-08T01:48:40;26.27;;;17.70;;
1082;SDS011;530;51.448;7.238;2024-03-08T01:51:06;26.30;;;19.90;;
1082;SDS011;530;51.448;7.238;2024-03-08T01:53:32;24.23;;;18.13;;
1082;SDS011;530;51.448;7.238;2024-03-08T01:55:59;28.30;;;18.43;;
1082;SDS011;530;51.448;7.238;2024-03-08T01:58:27;25.93;;;18.80;;
1082;SDS011;530;51.448;7.238;2024-03-08T02:00:54;25.10;;;18.47;;
1082;SDS011;530;51.448;7.238;2024-03-08T02:03:22;25.40;;;19.40;;
1082;SDS011;530;51.448;7.238;2024-03-08T02:05:48;25.27;;;18.73;;
1082;SDS011;530;51.448;7.238;2024-03-08T02:08:14;25.67;;;18.60;;
1082;SDS011;530;51.448;7.238;2024-03-08T02:10:41;23.20;;;17.67;;
1082;SDS011;530;51.448;7.238;2024-03-08T02:13:08;24.00;;;17.57;;
1082;SDS011;530;51.448;7.238;2024-03-08T02:15:51;26.37;;;18.90;;
1082;SDS011;530;51.448;7.238;2024-03-08T02:18:17;23.57;;;17.83;;
1082;SDS011;530;51.448;7.238;2024-03-08T02:20:44;23.70;;;17.50;;
1082;SDS011;530;51.448;7.238;2024-03-08T02:23:20;23.13;;;18.57;;
1082;SDS011;530;51.448;7.238;2024-03-08T02:25:47;22.90;;;17.53;;
1082;SDS011;530;51.448;7.238;2024-03-08T02:28:13;22.13;;;17.53;;
1082;SDS011;530;51.448;7.238;2024-03-08T02:30:39;25.80;;;18.57;;
1082;SDS011;530;51.448;7.238;2024-03-08T02:33:05;24.40;;;18.73;;
1082;SDS011;530;51.448;7.238;2024-03-08T02:35:32;23.77;;;18.00;;
1082;SDS011;530;51.448;7.238;2024-03-08T02:37:59;22.60;;;17.50;;
1082;SDS011;530;51.448;7.238;2024-03-08T02:40:24;26.20;;;19.57;;
1082;SDS011;530;51.448;7.238;2024-03-08T02:42:50;27.83;;;19.33;;
1082;SDS011;530;51.448;7.238;2024-03-08T02:45:16;23.87;;;18.57;;
1082;SDS011;530;51.448;7.238;2024-03-08T02:47:42;23.40;;;17.67;;
1082;SDS011;530;51.448;7.238;2024-03-08T02:50:08;26.13;;;18.77;;
1082;SDS011;530;51.448;7.238;2024-03-08T02:52:34;24.50;;;18.70;;
1082;SDS011;530;51.448;7.238;2024-03-08T02:55:00;21.53;;;16.77;;
1082;SDS011;530;51.448;7.238;2024-03-08T02:57:26;22.90;;;17.80;;
1082;SDS011;530;51.448;7.238;2024-03-08T02:59:55;24.70;;;18.30;;
1082;SDS011;530;51.448;7.238;2024-03-08T03:02:20;23.80;;;17.47;;
1082;SDS011;530;51.448;7.238;2024-03-08T03:04:48;26.90;;;17.50;;
1082;SDS011;530;51.448;7.238;2024-03-08T03:07:13;23.70;;;18.73;;
1082;SDS011;530;51.448;7.238;2024-03-08T03:09:39;23.47;;;17.20;;
1082;SDS011;530;51.448;7.238;2024-03-08T03:12:06;23.90;;;18.10;;
1082;SDS011;530;51.448;7.238;2024-03-08T03:14:36;26.00;;;18.80;;
1082;SDS011;530;51.448;7.238;2024-03-08T03:17:05;28.00;;;19.30;;
1082;SDS011;530;51.448;7.238;2024-03-08T03:19:31;25.60;;;18.60;;
1082;SDS011;530;51.448;7.238;2024-03-08T03:21:56;24.97;;;17.50;;
1082;SDS011;530;51.448;7.238;2024-03-08T03:24:22;20.13;;;16.30;;
1082;SDS011;530;51.448;7.238;2024-03-08T03:26:48;25.87;;;17.77;;
1082;SDS011;530;51.448;7.238;2024-03-08T03:29:14;22.40;;;17.60;;
1082;SDS011;530;51.448;7.238;2024-03-08T03:31:41;27.63;;;18.90;;
1082;SDS011;530;51.448;7.238;2024-03-08T03:34:10;26.17;;;17.10;;
1082;SDS011;530;51.448;7.238;2024-03-08T03:36:37;25.80;;;18.20;;
1082;SDS011;530;51.448;7.238;2024-03-08T03:39:07;26.53;;;18.83;;
1082;SDS011;530;51.448;7.238;2024-03-08T03:41:40;24.23;;;17.40;;
1082;SDS011;530;51.448;7.238;2024-03-08T03:44:11;23.57;;;17.70;;
1082;SDS011;530;51.448;7.238;2024-03-08T03:46:37;24.23;;;18.10;;
1082;SDS011;530;51.448;7.238;2024-03-08T03:49:09;22.23;;;16.67;;
1082;SDS011;530;51.448;7.238;2024-03-08T03:51:34;30.03;;;17.63;;
1082;SDS011;530;51.448;7.238;2024-03-08T03:54:00;27.30;;;19.10;;
1082;SDS011;530;51.448;7.238;2024-03-08T03:56:28;25.80;;;18.30;;
1082;SDS011;530;51.448;7.238;2024-03-08T03:58:55;25.93;;;18.10;;
1082;SDS011;530;51.448;7.238;2024-03-08T04:01:21;26.40;;;18.27;;
1082;SDS011;530;51.448;7.238;2024-03-08T04:03:47;24.57;;;18.20;;
1082;SDS011;530;51.448;7.238;2024-03-08T04:06:12;28.00;;;19.40;;
1082;SDS011;530;51.448;7.238;2024-03-08T04:08:39;26.60;;;16.63;;
1082;SDS011;530;51.448;7.238;2024-03-08T04:11:05;25.30;;;18.10;;
1082;SDS011;530;51.448;7.238;2024-03-08T04:13:31;26.37;;;18.03;;
1082;SDS011;530;51.448;7.238;2024-03-08T04:15:57;26.23;;;18.67;;
1082;SDS011;530;51.448;7.238;2024-03-08T04:18:23;25.13;;;17.57;;
1082;SDS011;530;51.448;7.238;2024-03-08T04:20:49;26.60;;;18.37;;
1082;SDS011;530;51.448;7.238;2024-03-08T04:23:15;29.10;;;18.10;;
1082;SDS011;530;51.448;7.238;2024-03-08T04:25:41;25.60;;;18.33;;
1082;SDS011;530;51.448;7.238;2024-03-08T04:28:07;26.80;;;17.80;;
1082;SDS011;530;51.448;7.238;2024-03-08T04:30:36;25.57;;;18.23;;
1082;SDS011;530;51.448;7.238;2024-03-08T04:33:03;29.27;;;19.23;;
1082;SDS011;530;51.448;7.238;2024-03-08T04:35:29;23.17;;;17.47;;
1082;SDS011;530;51.448;7.238;2024-03-08T04:37:55;26.07;;;18.90;;
1082;SDS011;530;51.448;7.238;2024-03-08T04:40:22;22.40;;;17.23;;
1082;SDS011;530;51.448;7.238;2024-03-08T04:42:48;26.60;;;18.60;;
1082;SDS011;530;51.448;7.238;2024-03-08T04:45:16;28.10;;;19.17;;
1082;SDS011;530;51.448;7.238;2024-03-08T04:47:42;26.80;;;17.80;;
1082;SDS011;530;51.448;7.238;2024-03-08T04:50:08;30.20;;;19.07;;
1082;SDS011;530;51.448;7.238;2024-03-08T04:52:34;31.13;;;18.03;;
1082;SDS011;530;51.448;7.238;2024-03-08T04:55:00;25.63;;;18.57;;
1082;SDS011;530;51.448;7.238;2024-03-08T04:57:29;25.93;;;18.60;;
1082;SDS011;530;51.448;7.238;2024-03-08T04:59:55;30.20;;;18.70;;
1082;SDS011;530;51.448;7.238;2024-03-08T05:02:21;26.33;;;18.80;;
1082;SDS011;530;51.448;7.238;2024-03-08T05:04:48;27.83;;;19.33;;
1082;SDS011;530;51.448;7.238;2024-03-08T05:07:13;24.87;;;18.47;;
1082;SDS011;530;51.448;7.238;2024-03-08T05:09:39;27.30;;;19.63;;
1082;SDS011;530;51.448;7.238;2024-03-08T05:12:06;26.63;;;19.77;;
1082;SDS011;530;51.448;7.238;2024-03-08T05:14:33;27.90;;;18.57;;
1082;SDS011;530;51.448;7.238;2024-03-08T05:16:59;27.87;;;19.57;;
1082;SDS011;530;51.448;7.238;2024-03-08T05:19:25;28.70;;;19.87;;
1082;SDS011;530;51.448;7.238;2024-03-08T05:21:51;30.23;;;19.40;;
1082;SDS011;530;51.448;7.238;2024-03-08T05:24:17;31.20;;;21.13;;
1082;SDS011;530;51.448;7.238;2024-03-08T05:26:43;29.73;;;20.90;;
1082;SDS011;530;51.448;7.238;2024-03-08T05:29:10;29.00;;;19.30;;
1082;SDS011;530;51.448;7.238;2024-03-08T05:31:38;29.90;;;20.00;;
1082;SDS011;530;51.448;7.238;2024-03-08T05:34:15;27.17;;;20.27;;
1082;SDS011;530;51.448;7.238;2024-03-08T05:36:41;24.37;;;18.27;;
1082;SDS011;530;51.448;7.238;2024-03-08T05:39:11;28.80;;;19.90;;
1082;SDS011;530;51.448;7.238;2024-03-08T05:41:38;25.53;;;19.30;;
1082;SDS011;530;51.448;7.238;2024-03-08T05:44:04;28.53;;;20.30;;
1082;SDS011;530;51.448;7.238;2024-03-08T05:46:30;26.43;;;18.80;;
1082;SDS011;530;51.448;7.238;2024-03-08T05:48:56;26.87;;;20.27;;
1082;SDS011;530;51.448;7.238;2024-03-08T05:51:23;30.73;;;19.50;;
1082;SDS011;530;51.448;7.238;2024-03-08T05:53:51;25.70;;;18.30;;
1082;SDS011;530;51.448;7.238;2024-03-08T05:56:18;27.80;;;19.80;;
1082;SDS011;530;51.448;7.238;2024-03-08T05:58:44;28.07;;;19.70;;
1082;SDS011;530;51.448;7.238;2024-03-08T06:01:10;29.23;;;20.13;;
1082;SDS011;530;51.448;7.238;2024-03-08T06:03:38;27.27;;;19.97;;
1082;SDS011;530;51.448;7.238;2024-03-08T06:06:13;26.40;;;19.87;;
1082;SDS011;530;51.448;7.238;2024-03-08T06:08:39;28.23;;;20.13;;
1082;SDS011;530;51.448;7.238;2024-03-08T06:11:05;31.03;;;20.77;;
1082;SDS011;530;51.448;7.238;2024-03-08T06:13:31;27.40;;;19.70;;
1082;SDS011;530;51.448;7.238;2024-03-08T06:15:59;29.27;;;19.80;;
1082;SDS011;530;51.448;7.238;2024-03-08T06:18:25;28.87;;;20.67;;
1082;SDS011;530;51.448;7.238;2024-03-08T06:20:51;34.03;;;20.73;;
1082;SDS011;530;51.448;7.238;2024-03-08T06:23:17;28.40;;;20.30;;
1082;SDS011;530;51.448;7.238;2024-03-08T06:25:46;28.13;;;19.13;;
1082;SDS011;530;51.448;7.238;2024-03-08T06:28:12;33.27;;;19.70;;
1082;SDS011;530;51.448;7.238;2024-03-08T06:30:39;28.50;;;19.53;;
1082;SDS011;530;51.448;7.238;2024-03-08T06:33:05;29.10;;;20.70;;
1082;SDS011;530;51.448;7.238;2024-03-08T06:35:32;30.73;;;20.63;;
1082;SDS011;530;51.448;7.238;2024-03-08T06:38:00;31.30;;;21.30;;
1082;SDS011;530;51.448;7.238;2024-03-08T06:40:26;31.87;;;21.50;;
1082;SDS011;530;51.448;7.238;2024-03-08T06:42:52;28.80;;;19.47;;
1082;SDS011;530;51.448;7.238;2024-03-08T06:45:17;30.27;;;21.27;;
1082;SDS011;530;51.448;7.238;2024-03-08T06:47:46;29.43;;;19.97;;
1082;SDS011;530;51.448;7.238;2024-03-08T06:50:12;30.50;;;20.53;;
1082;SDS011;530;51.448;7.238;2024-03-08T06:52:38;30.10;;;20.43;;
1082;SDS011;530;51.448;7.238;2024-03-08T06:55:05;31.23;;;20.57;;
1082;SDS011;530;51.448;7.238;2024-03-08T06:57:31;32.20;;;22.20;;
1082;SDS011;530;51.448;7.238;2024-03-08T06:59:57;34.20;;;21.40;;
1082;SDS011;530;51.448;7.238;2024-03-08T07:02:23;30.23;;;19.97;;
1082;SDS011;530;51.448;7.238;2024-03-08T07:04:52;26.87;;;20.13;;
1082;SDS011;530;51.448;7.238;2024-03-08T07:07:18;32.07;;;20.57;;
1082;SDS011;530;51.448;7.238;2024-03-08T07:09:45;29.87;;;20.67;;
1082;SDS011;530;51.448;7.238;2024-03-08T07:12:11;30.60;;;22.33;;
1082;SDS011;530;51.448;7.238;2024-03-08T07:14:38;33.20;;;20.60;;
1082;SDS011;530;51.448;7.238;2024-03-08T07:17:06;30.33;;;20.87;;
1082;SDS011;530;51.448;7.238;2024-03-08T07:19:34;30.60;;;22.07;;
1082;SDS011;530;51.448;7.238;2024-03-08T07:22:00;29.03;;;20.70;;
1082;SDS011;530;51.448;7.238;2024-03-08T07:24:28;30.77;;;20.23;;
1082;SDS011;530;51.448;7.238;2024-03-08T07:27:03;30.30;;;21.33;;
1082;SDS011;530;51.448;7.238;2024-03-08T07:29:30;31.87;;;20.03;;
1082;SDS011;530;51.448;7.238;2024-03-08T07:32:01;30.43;;;20.57;;
1082;SDS011;530;51.448;7.238;2024-03-08T07:34:44;30.43;;;21.77;;
1082;SDS011;530;51.448;7.238;2024-03-08T07:37:09;30.73;;;20.90;;
1082;SDS011;530;51.448;7.238;2024-03-08T07:39:38;31.57;;;20.10;;
1082;SDS011;530;51.448;7.238;2024-03-08T07:42:04;27.37;;;20.30;;
1082;SDS011;530;51.448;7.238;2024-03-08T07:44:30;30.13;;;20.60;;
1082;SDS011;530;51.448;7.238;2024-03-08T07:46:57;27.97;;;19.60;;
1082;SDS011;530;51.448;7.238;2024-03-08T07:49:23;31.20;;;21.07;;
1082;SDS011;530;51.448;7.238;2024-03-08T07:51:49;30.03;;;20.73;;
1082;SDS011;530;51.448;7.238;2024-03-08T07:54:17;27.40;;;21.10;;
1082;SDS011;530;51.448;7.238;2024-03-08T07:56:42;30.97;;;20.43;;
1082;SDS011;530;51.448;7.238;2024-03-08T07:59:08;26.97;;;19.90;;
1082;SDS011;530;51.448;7.238;2024-03-08T08:01:34;25.87;;;19.17;;
1082;SDS011;530;51.448;7.238;2024-03-08T08:03:59;34.83;;;22.00;;
1082;SDS011;530;51.448;7.238;2024-03-08T08:06:28;29.43;;;20.33;;
1082;SDS011;530;51.448;7.238;2024-03-08T08:08:57;26.73;;;20.17;;
1082;SDS011;530;51.448;7.238;2024-03-08T08:11:22;27.17;;;20.20;;
1082;SDS011;530;51.448;7.238;2024-03-08T08:13:50;29.90;;;19.93;;
1082;SDS011;530;51.448;7.238;2024-03-08T08:16:16;28.97;;;20.90;;
1082;SDS011;530;51.448;7.238;2024-03-08T08:18:42;26.00;;;19.07;;
1082;SDS011;530;51.448;7.238;2024-03-08T08:21:07;27.33;;;19.70;;
1082;SDS011;530;51.448;7.238;2024-03-08T08:23:33;28.00;;;20.00;;
1082;SDS011;530;51.448;7.238;2024-03-08T08:25:59;28.50;;;19.80;;
1082;SDS011;530;51.448;7.238;2024-03-08T08:28:26;25.33;;;17.93;;
1082;SDS011;530;51.448;7.238;2024-03-08T08:30:52;28.27;;;19.47;;
1082;SDS011;530;51.448;7.238;2024-03-08T08:33:17;32.00;;;20.90;;
1082;SDS011;530;51.448;7.238;2024-03-08T08:35:44;27.80;;;19.67;;
1082;SDS011;530;51.448;7.238;2024-03-08T08:38:10;25.87;;;18.10;;
1082;SDS011;530;51.448;7.238;2024-03-08T08:40:36;24.33;;;18.47;;
1082;SDS011;530;51.448;7.238;2024-03-08T08:43:02;25.67;;;18.83;;
1082;SDS011;530;51.448;7.238;2024-03-08T08:45:32;26.80;;;19.07;;
1082;SDS011;530;51.448;7.238;2024-03-08T08:47:58;23.00;;;17.73;;
1082;SDS011;530;51.448;7.238;2024-03-08T08:50:26;28.60;;;19.20;;
1082;SDS011;530;51.448;7.238;2024-03-08T08:52:53;23.00;;;17.83;;
1082;SDS011;530;51.448;7.238;2024-03-08T08:55:19;24.73;;;19.00;;
1082;SDS011;530;51.448;7.238;2024-03-08T08:57:46;26.90;;;18.80;;
1082;SDS011;530;51.448;7.238;2024-03-08T09:00:17;26.17;;;19.63;;
1082;SDS011;530;51.448;7.238;2024-03-08T09:02:47;25.60;;;18.27;;
1082;SDS011;530;51.448;7.238;2024-03-08T09:05:13;28.33;;;21.33;;
1082;SDS011;530;51.448;7.238;2024-03-08T09:07:42;26.53;;;19.50;;
1082;SDS011;530;51.448;7.238;2024-03-08T09:10:09;26.83;;;20.73;;
1082;SDS011;530;51.448;7.238;2024-03-08T09:12:37;24.90;;;19.70;;
1082;SDS011;530;51.448;7.238;2024-03-08T09:15:04;28.23;;;19.50;;
1082;SDS011;530;51.448;7.238;2024-03-08T09:17:33;26.13;;;18.80;;
1082;SDS011;530;51.448;7.238;2024-03-08T09:19:59;26.03;;;19.57;;
1082;SDS011;530;51.448;7.238;2024-03-08T09:22:25;23.77;;;18.20;;
1082;SDS011;530;51.448;7.238;2024-03-08T09:24:51;24.60;;;18.73;;
1082;SDS011;530;51.448;7.238;2024-03-08T09:27:17;27.63;;;18.47;;
1082;SDS011;530;51.448;7.238;2024-03-08T09:29:43;23.47;;;18.43;;
1082;SDS011;530;51.448;7.238;2024-03-08T09:32:09;26.57;;;17.70;;
1082;SDS011;530;51.448;7.238;2024-03-08T09:34:36;27.37;;;19.00;;
1082;SDS011;530;51.448;7.238;2024-03-08T09:37:02;25.07;;;19.30;;
1082;SDS011;530;51.448;7.238;2024-03-08T09:39:29;24.70;;;18.37;;
1082;SDS011;530;51.448;7.238;2024-03-08T09:41:55;25.70;;;20.00;;
1082;SDS011;530;51.448;7.238;2024-03-08T09:44:21;24.10;;;18.63;;
1082;SDS011;530;51.448;7.238;2024-03-08T09:46:48;26.63;;;20.13;;
1082;SDS011;530;51.448;7.238;2024-03-08T09:49:18;28.73;;;20.63;;
1082;SDS011;530;51.448;7.238;2024-03-08T09:51:43;28.30;;;20.70;;
1082;SDS011;530;51.448;7.238;2024-03-08T09:54:09;27.13;;;20.90;;
1082;SDS011;530;51.448;7.238;2024-03-08T09:56:36;25.17;;;19.67;;
1082;SDS011;530;51.448;7.238;2024-03-08T09:59:03;26.20;;;19.93;;
1082;SDS011;530;51.448;7.238;2024-03-08T10:01:35;22.67;;;19.20;;
1082;SDS011;530;51.448;7.238;2024-03-08T10:04:02;25.67;;;20.47;;
1082;SDS011;530;51.448;7.238;2024-03-08T10:06:27;25.13;;;19.00;;
1082;SDS011;530;51.448;7.238;2024-03-08T10:08:53;26.60;;;19.80;;
1082;SDS011;530;51.448;7.238;2024-03-08T10:11:19;24.03;;;18.47;;
1082;SDS011;530;51.448;7.238;2024-03-08T10:13:45;25.90;;;19.03;;
1082;SDS011;530;51.448;7.238;2024-03-08T10:16:13;26.67;;;19.00;;
1082;SDS011;530;51.448;7.238;2024-03-08T10:18:39;23.70;;;19.37;;
1082;SDS011;530;51.448;7.238;2024-03-08T10:21:06;25.57;;;20.53;;
1082;SDS011;530;51.448;7.238;2024-03-08T10:23:35;23.83;;;19.60;;
1082;SDS011;530;51.448;7.238;2024-03-08T10:26:11;25.97;;;20.50;;
1082;SDS011;530;51.448;7.238;2024-03-08T10:28:40;24.53;;;20.07;;
1082;SDS011;530;51.448;7.238;2024-03-08T10:31:13;24.93;;;20.30;;
1082;SDS011;530;51.448;7.238;2024-03-08T10:33:40;24.20;;;20.33;;
1082;SDS011;530;51.448;7.238;2024-03-08T10:36:09;25.27;;;20.57;;
1082;SDS011;530;51.448;7.238;2024-03-08T10:38:39;23.97;;;20.43;;
1082;SDS011;530;51.448;7.238;2024-03-08T10:41:07;27.70;;;21.57;;
1082;SDS011;530;51.448;7.238;2024-03-08T10:49:12;26.50;;;21.23;;
1082;SDS011;530;51.448;7.238;2024-03-08T10:51:45;23.27;;;20.17;;
1082;SDS011;530;51.448;7.238;2024-03-08T10:54:13;26.20;;;21.13;;
1082;SDS011;530;51.448;7.238;2024-03-08T10:56:40;27.90;;;21.50;;
1082;SDS011;530;51.448;7.238;2024-03-08T10:59:09;29.63;;;21.50;;
1082;SDS011;530;51.448;7.238;2024-03-08T11:01:36;31.70;;;21.90;;
1082;SDS011;530;51.448;7.238;2024-03-08T11:04:03;25.83;;;21.30;;
1082;SDS011;530;51.448;7.238;2024-03-08T11:09:02;25.60;;;21.90;;
1082;SDS011;530;51.448;7.238;2024-03-08T11:11:29;28.00;;;21.83;;
1082;SDS011;530;51.448;7.238;2024-03-08T11:13:59;27.77;;;23.30;;
1082;SDS011;530;51.448;7.238;2024-03-08T11:18:58;26.30;;;21.80;;
1082;SDS011;530;51.448;7.238;2024-03-08T11:21:29;23.93;;;20.83;;
1082;SDS011;530;51.448;7.238;2024-03-08T11:23:59;25.40;;;21.57;;
1082;SDS011;530;51.448;7.238;2024-03-08T11:26:26;28.03;;;21.87;;
1082;SDS011;530;51.448;7.238;2024-03-08T11:28:52;33.20;;;22.70;;
1082;SDS011;530;51.448;7.238;2024-03-08T11:31:23;25.40;;;20.53;;
1082;SDS011;530;51.448;7.238;2024-03-08T11:33:50;25.00;;;20.43;;
1082;SDS011;530;51.448;7.238;2024-03-08T11:36:24;25.53;;;20.80;;
1082;SDS011;530;51.448;7.238;2024-03-08T11:38:50;23.70;;;20.03;;
1082;SDS011;530;51.448;7.238;2024-03-08T11:41:21;24.97;;;20.33;;
1082;SDS011;530;51.448;7.238;2024-03-08T11:43:49;25.77;;;21.43;;
1082;SDS011;530;51.448;7.238;2024-03-08T11:46:26;25.40;;;19.83;;
1082;SDS011;530;51.448;7.238;2024-03-08T11:48:53;21.27;;;18.70;;
1082;SDS011;530;51.448;7.238;2024-03-08T11:51:22;29.10;;;19.97;;
1082;SDS011;530;51.448;7.238;2024-03-08T11:53:49;20.90;;;18.57;;
1082;SDS011;530;51.448;7.238;2024-03-08T11:56:15;21.70;;;18.93;;
1082;SDS011;530;51.448;7.238;2024-03-08T11:58:41;26.63;;;20.70;;
1082;SDS011;530;51.448;7.238;2024-03-08T12:01:07;25.17;;;21.10;;
1082;SDS011;530;51.448;7.238;2024-03-08T12:03:37;23.13;;;20.63;;
1082;SDS011;530;51.448;7.238;2024-03-08T12:06:09;26.57;;;19.77;;
1082;SDS011;530;51.448;7.238;2024-03-08T12:08:35;25.83;;;21.80;;
1082;SDS011;530;51.448;7.238;2024-03-08T12:11:03;21.73;;;19.37;;
1082;SDS011;530;51.448;7.238;2024-03-08T12:13:33;25.23;;;19.90;;
1082;SDS011;530;51.448;7.238;2024-03-08T12:16:02;23.57;;;20.13;;
1082;SDS011;530;51.448;7.238;2024-03-08T12:18:34;22.90;;;19.40;;
1082;SDS011;530;51.448;7.238;2024-03-08T12:23:36;21.73;;;17.40;;
1082;SDS011;530;51.448;7.238;2024-03-08T12:28:44;16.27;;;9.60;;
1082;SDS011;530;51.448;7.238;2024-03-08T12:31:14;9.30;;;7.57;;
1082;SDS011;530;51.448;7.238;2024-03-08T12:36:14;10.40;;;8.47;;
1082;SDS011;530;51.448;7.238;2024-03-08T12:38:43;9.30;;;8.00;;
1082;SDS011;530;51.448;7.238;2024-03-08T12:41:13;10.67;;;8.87;;
1082;SDS011;530;51.448;7.238;2024-03-08T12:43:39;10.00;;;9.00;;
1082;SDS011;530;51.448;7.238;2024-03-08T12:46:05;10.27;;;7.50;;
1082;SDS011;530;51.448;7.238;2024-03-08T12:48:34;8.73;;;7.73;;
1082;SDS011;530;51.448;7.238;2024-03-08T12:51:00;9.53;;;7.77;;
1082;SDS011;530;51.448;7.238;2024-03-08T12:53:26;10.20;;;8.60;;
1082;SDS011;530;51.448;7.238;2024-03-08T12:55:54;10.83;;;8.70;;
1082;SDS011;530;51.448;7.238;2024-03-08T12:58:21;10.80;;;8.77;;
1082;SDS011;530;51.448;7.238;2024-03-08T13:00:47;9.20;;;8.20;;
1082;SDS011;530;51.448;7.238;2024-03-08T13:03:14;9.47;;;8.50;;
1082;SDS011;530;51.448;7.238;2024-03-08T13:05:39;12.10;;;9.80;;
1082;SDS011;530;51.448;7.238;2024-03-08T13:08:07;9.63;;;8.07;;
1082;SDS011;530;51.448;7.238;2024-03-08T13:10:41;11.23;;;9.07;;
1082;SDS011;530;51.448;7.238;2024-03-08T13:13:11;8.87;;;7.90;;
1082;SDS011;530;51.448;7.238;2024-03-08T13:15:38;11.97;;;9.47;;
1082;SDS011;530;51.448;7.238;2024-03-08T13:18:05;9.20;;;8.20;;
1082;SDS011;530;51.448;7.238;2024-03-08T13:20:34;12.80;;;9.50;;
1082;SDS011;530;51.448;7.238;2024-03-08T13:23:02;10.37;;;8.73;;
1082;SDS011;530;51.448;7.238;2024-03-08T13:25:33;10.60;;;9.10;;
1082;SDS011;530;51.448;7.238;2024-03-08T13:27:59;9.90;;;8.90;;
1082;SDS011;530;51.448;7.238;2024-03-08T13:30:26;10.53;;;8.73;;
1082;SDS011;530;51.448;7.238;2024-03-08T13:32:54;10.80;;;9.63;;
1082;SDS011;530;51.448;7.238;2024-03-08T13:35:20;11.10;;;9.37;;
1082;SDS011;530;51.448;7.238;2024-03-08T13:37:55;10.67;;;9.43;;
1082;SDS011;530;51.448;7.238;2024-03-08T13:40:20;9.60;;;8.60;;
1082;SDS011;530;51.448;7.238;2024-03-08T13:42:47;12.17;;;10.23;;
1082;SDS011;530;51.448;7.238;2024-03-08T13:45:14;10.37;;;9.30;;
1082;SDS011;530;51.448;7.238;2024-03-08T13:47:45;10.57;;;9.23;;
1082;SDS011;530;51.448;7.238;2024-03-08T13:50:11;10.90;;;9.17;;
1082;SDS011;530;51.448;7.238;2024-03-08T13:52:40;9.63;;;8.10;;
1082;SDS011;530;51.448;7.238;2024-03-08T13:55:06;9.80;;;8.80;;
1082;SDS011;530;51.448;7.238;2024-03-08T13:57:32;9.83;;;8.80;;
1082;SDS011;530;51.448;7.238;2024-03-08T13:59:58;10.77;;;9.20;;
1082;SDS011;530;51.448;7.238;2024-03-08T14:02:25;10.63;;;9.53;;
1082;SDS011;530;51.448;7.238;2024-03-08T14:04:54;11.00;;;9.40;;
1082;SDS011;530;51.448;7.238;2024-03-08T14:07:20;10.73;;;9.57;;
1082;SDS011;530;51.448;7.238;2024-03-08T14:09:46;10.87;;;9.67;;
1082;SDS011;530;51.448;7.238;2024-03-08T14:12:12;12.90;;;11.10;;
1082;SDS011;530;51.448;7.238;2024-03-08T14:14:38;12.27;;;10.60;;
1082;SDS011;530;51.448;7.238;2024-03-08T14:17:07;11.50;;;10.30;;
1082;SDS011;530;51.448;7.238;2024-03-08T14:19:34;12.87;;;10.60;;
1082;SDS011;530;51.448;7.238;2024-03-08T14:22:00;12.40;;;10.20;;
1082;SDS011;530;51.448;7.238;2024-03-08T14:24:29;12.60;;;10.33;;
1082;SDS011;530;51.448;7.238;2024-03-08T14:26:55;13.13;;;9.47;;
1082;SDS011;530;51.448;7.238;2024-03-08T14:29:24;13.10;;;11.67;;
1082;SDS011;530;51.448;7.238;2024-03-08T14:31:54;11.40;;;10.00;;
1082;SDS011;530;51.448;7.238;2024-03-08T14:34:22;12.53;;;10.67;;
1082;SDS011;530;51.448;7.238;2024-03-08T14:36:52;12.20;;;10.90;;
1082;SDS011;530;51.448;7.238;2024-03-08T14:39:18;11.47;;;10.27;;
1082;SDS011;530;51.448;7.238;2024-03-08T14:41:51;14.20;;;9.80;;
1082;SDS011;530;51.448;7.238;2024-03-08T14:44:19;13.03;;;10.63;;
1082;SDS011;530;51.448;7.238;2024-03-08T14:46:45;12.13;;;10.53;;
1082;SDS011;530;51.448;7.238;2024-03-08T14:49:11;12.17;;;10.23;;
1082;SDS011;530;51.448;7.238;2024-03-08T14:51:37;12.13;;;10.77;;
1082;SDS011;530;51.448;7.238;2024-03-08T14:54:03;12.63;;;11.00;;
1082;SDS011;530;51.448;7.238;2024-03-08T14:56:32;13.17;;;10.87;;
1082;SDS011;530;51.448;7.238;2024-03-08T14:58:58;13.43;;;10.63;;
1082;SDS011;530;51.448;7.238;2024-03-08T15:01:24;12.13;;;10.77;;
1082;SDS011;530;51.448;7.238;2024-03-08T15:03:54;13.30;;;11.17;;
1082;SDS011;530;51.448;7.238;2024-03-08T15:06:28;13.90;;;10.77;;
1082;SDS011;530;51.448;7.238;2024-03-08T15:08:56;12.10;;;10.60;;
1082;SDS011;530;51.448;7.238;2024-03-08T15:11:22;14.03;;;10.50;;
1082;SDS011;530;51.448;7.238;2024-03-08T15:13:50;12.60;;;10.13;;
1082;SDS011;530;51.448;7.238;2024-03-08T15:16:18;13.43;;;9.53;;
1082;SDS011;530;51.448;7.238;2024-03-08T15:18:45;15.73;;;11.50;;
1082;SDS011;530;51.448;7.238;2024-03-08T15:21:16;11.10;;;9.73;;